Terminal Aerodrome Forecast
Issued by NWS

Home | Current Version | Previous Version | Text Only | Print | Product List | Glossary On
Versions: 1 2 3 4 5 6 7 8 9 10 11 12 13 14 15 16 17 18 19 20 21 22
000
FTUS43 KDVN 011441 AAB
TAFBRL
TAF AMD
KBRL 011441Z 0115/0212 05008KT 4SM BR OVC002
     FM011700 05007KT 3SM BR VCSH OVC004
     FM012200 01009KT 4SM BR VCSH OVC003
     FM020100 36006KT 3SM BR OVC002=

USA.gov is the U.S. government's official web portal to all federal, state and local government web resources and services.